sensor_id;sensor_type;location;lat;lon;timestamp;P1;durP1;ratioP1;P2;durP2;ratioP2
71771;SDS011;59606;52.138;5.424;2023-03-01T00:00:39;12.13;;;6.00;;
71771;SDS011;59606;52.138;5.424;2023-03-01T00:03:06;11.38;;;5.43;;
71771;SDS011;59606;52.138;5.424;2023-03-01T00:05:33;13.60;;;6.13;;
71771;SDS011;59606;52.138;5.424;2023-03-01T00:07:59;11.40;;;4.97;;
71771;SDS011;59606;52.138;5.424;2023-03-01T00:10:26;12.80;;;5.70;;
71771;SDS011;59606;52.138;5.424;2023-03-01T00:12:52;12.27;;;5.32;;
71771;SDS011;59606;52.138;5.424;2023-03-01T00:15:19;14.02;;;5.82;;
71771;SDS011;59606;52.138;5.424;2023-03-01T00:17:45;11.20;;;5.17;;
71771;SDS011;59606;52.138;5.424;2023-03-01T00:20:12;13.68;;;5.40;;
71771;SDS011;59606;52.138;5.424;2023-03-01T00:22:38;11.32;;;5.70;;
71771;SDS011;59606;52.138;5.424;2023-03-01T00:25:05;10.63;;;5.30;;
71771;SDS011;59606;52.138;5.424;2023-03-01T00:27:32;11.70;;;5.28;;
71771;SDS011;59606;52.138;5.424;2023-03-01T00:29:58;13.13;;;5.50;;
71771;SDS011;59606;52.138;5.424;2023-03-01T00:32:25;15.75;;;5.95;;
71771;SDS011;59606;52.138;5.424;2023-03-01T00:34:51;11.88;;;5.32;;
71771;SDS011;59606;52.138;5.424;2023-03-01T00:37:21;11.80;;;6.13;;
71771;SDS011;59606;52.138;5.424;2023-03-01T00:39:48;13.23;;;5.45;;
71771;SDS011;59606;52.138;5.424;2023-03-01T00:42:16;17.50;;;6.07;;
71771;SDS011;59606;52.138;5.424;2023-03-01T00:44:42;10.70;;;5.25;;
71771;SDS011;59606;52.138;5.424;2023-03-01T00:47:09;12.57;;;5.15;;
71771;SDS011;59606;52.138;5.424;2023-03-01T00:49:36;12.52;;;5.95;;
71771;SDS011;59606;52.138;5.424;2023-03-01T00:52:03;11.02;;;4.80;;
71771;SDS011;59606;52.138;5.424;2023-03-01T00:54:29;13.17;;;5.30;;
71771;SDS011;59606;52.138;5.424;2023-03-01T00:56:55;14.25;;;5.95;;
71771;SDS011;59606;52.138;5.424;2023-03-01T00:59:22;11.00;;;5.20;;
71771;SDS011;59606;52.138;5.424;2023-03-01T01:01:48;12.10;;;5.25;;
71771;SDS011;59606;52.138;5.424;2023-03-01T01:04:15;13.10;;;6.25;;
71771;SDS011;59606;52.138;5.424;2023-03-01T01:06:43;11.63;;;5.30;;
71771;SDS011;59606;52.138;5.424;2023-03-01T01:09:12;10.38;;;5.13;;
71771;SDS011;59606;52.138;5.424;2023-03-01T01:11:46;13.32;;;5.75;;
71771;SDS011;59606;52.138;5.424;2023-03-01T01:14:14;10.05;;;5.43;;
71771;SDS011;59606;52.138;5.424;2023-03-01T01:16:41;11.55;;;5.90;;
71771;SDS011;59606;52.138;5.424;2023-03-01T01:19:09;14.37;;;5.40;;
71771;SDS011;59606;52.138;5.424;2023-03-01T01:21:37;14.25;;;5.40;;
71771;SDS011;59606;52.138;5.424;2023-03-01T01:24:04;13.38;;;6.88;;
71771;SDS011;59606;52.138;5.424;2023-03-01T01:26:31;12.15;;;5.68;;
71771;SDS011;59606;52.138;5.424;2023-03-01T01:29:00;13.05;;;6.55;;
71771;SDS011;59606;52.138;5.424;2023-03-01T01:31:28;14.43;;;6.17;;
71771;SDS011;59606;52.138;5.424;2023-03-01T01:33:56;13.82;;;5.65;;
71771;SDS011;59606;52.138;5.424;2023-03-01T01:36:23;14.57;;;6.15;;
71771;SDS011;59606;52.138;5.424;2023-03-01T01:38:49;12.93;;;6.65;;
71771;SDS011;59606;52.138;5.424;2023-03-01T01:41:16;13.40;;;5.53;;
71771;SDS011;59606;52.138;5.424;2023-03-01T01:43:45;12.83;;;6.00;;
71771;SDS011;59606;52.138;5.424;2023-03-01T01:46:21;13.45;;;5.85;;
71771;SDS011;59606;52.138;5.424;2023-03-01T01:48:59;15.27;;;6.45;;
71771;SDS011;59606;52.138;5.424;2023-03-01T01:51:28;18.48;;;7.15;;
71771;SDS011;59606;52.138;5.424;2023-03-01T01:54:08;12.88;;;6.10;;
71771;SDS011;59606;52.138;5.424;2023-03-01T01:56:44;13.00;;;6.80;;
71771;SDS011;59606;52.138;5.424;2023-03-01T01:59:15;14.48;;;5.97;;
71771;SDS011;59606;52.138;5.424;2023-03-01T02:01:42;13.18;;;6.72;;
71771;SDS011;59606;52.138;5.424;2023-03-01T02:04:09;11.32;;;6.63;;
71771;SDS011;59606;52.138;5.424;2023-03-01T02:06:44;15.13;;;6.65;;
71771;SDS011;59606;52.138;5.424;2023-03-01T02:09:17;15.83;;;6.47;;
71771;SDS011;59606;52.138;5.424;2023-03-01T02:11:46;13.02;;;5.63;;
71771;SDS011;59606;52.138;5.424;2023-03-01T02:14:14;17.20;;;6.88;;
71771;SDS011;59606;52.138;5.424;2023-03-01T02:16:41;14.73;;;6.13;;
71771;SDS011;59606;52.138;5.424;2023-03-01T02:19:08;13.10;;;7.32;;
71771;SDS011;59606;52.138;5.424;2023-03-01T02:21:54;15.37;;;6.03;;
71771;SDS011;59606;52.138;5.424;2023-03-01T02:30:20;14.15;;;6.55;;
71771;SDS011;59606;52.138;5.424;2023-03-01T02:32:48;20.83;;;6.15;;
71771;SDS011;59606;52.138;5.424;2023-03-01T02:35:16;15.33;;;6.60;;
71771;SDS011;59606;52.138;5.424;2023-03-01T02:37:45;15.48;;;6.28;;
71771;SDS011;59606;52.138;5.424;2023-03-01T02:40:14;9.77;;;5.72;;
71771;SDS011;59606;52.138;5.424;2023-03-01T02:42:47;12.30;;;6.10;;
71771;SDS011;59606;52.138;5.424;2023-03-01T02:45:19;13.57;;;6.00;;
71771;SDS011;59606;52.138;5.424;2023-03-01T02:47:46;14.37;;;5.97;;
71771;SDS011;59606;52.138;5.424;2023-03-01T02:50:22;18.10;;;6.72;;
71771;SDS011;59606;52.138;5.424;2023-03-01T02:53:13;12.90;;;6.15;;
71771;SDS011;59606;52.138;5.424;2023-03-01T02:55:48;13.15;;;5.85;;
71771;SDS011;59606;52.138;5.424;2023-03-01T02:58:15;13.80;;;5.68;;
71771;SDS011;59606;52.138;5.424;2023-03-01T03:00:42;13.70;;;5.90;;
71771;SDS011;59606;52.138;5.424;2023-03-01T03:03:13;10.85;;;5.53;;
71771;SDS011;59606;52.138;5.424;2023-03-01T03:05:41;13.90;;;6.65;;
71771;SDS011;59606;52.138;5.424;2023-03-01T03:08:07;15.13;;;6.20;;
71771;SDS011;59606;52.138;5.424;2023-03-01T03:10:36;15.98;;;6.82;;
71771;SDS011;59606;52.138;5.424;2023-03-01T03:13:06;12.97;;;6.20;;
71771;SDS011;59606;52.138;5.424;2023-03-01T03:15:36;17.33;;;6.32;;
71771;SDS011;59606;52.138;5.424;2023-03-01T03:18:06;11.70;;;5.13;;
71771;SDS011;59606;52.138;5.424;2023-03-01T03:20:35;16.80;;;5.80;;
71771;SDS011;59606;52.138;5.424;2023-03-01T03:23:03;13.57;;;5.90;;
71771;SDS011;59606;52.138;5.424;2023-03-01T03:25:30;13.03;;;5.87;;
71771;SDS011;59606;52.138;5.424;2023-03-01T03:27:57;16.90;;;6.93;;
71771;SDS011;59606;52.138;5.424;2023-03-01T03:30:29;12.48;;;6.60;;
71771;SDS011;59606;52.138;5.424;2023-03-01T03:32:57;13.65;;;6.53;;
71771;SDS011;59606;52.138;5.424;2023-03-01T03:35:45;13.48;;;6.90;;
71771;SDS011;59606;52.138;5.424;2023-03-01T03:38:15;10.73;;;5.53;;
71771;SDS011;59606;52.138;5.424;2023-03-01T03:40:51;10.95;;;5.85;;
71771;SDS011;59606;52.138;5.424;2023-03-01T03:43:27;13.55;;;6.22;;
71771;SDS011;59606;52.138;5.424;2023-03-01T03:45:53;16.80;;;6.50;;
71771;SDS011;59606;52.138;5.424;2023-03-01T03:48:20;15.70;;;5.75;;
71771;SDS011;59606;52.138;5.424;2023-03-01T03:50:48;10.80;;;5.27;;
71771;SDS011;59606;52.138;5.424;2023-03-01T03:53:16;17.88;;;7.07;;
71771;SDS011;59606;52.138;5.424;2023-03-01T03:55:44;14.45;;;6.00;;
71771;SDS011;59606;52.138;5.424;2023-03-01T03:58:10;13.98;;;6.30;;
71771;SDS011;59606;52.138;5.424;2023-03-01T04:00:41;14.60;;;6.28;;
71771;SDS011;59606;52.138;5.424;2023-03-01T04:03:10;23.93;;;7.10;;
71771;SDS011;59606;52.138;5.424;2023-03-01T04:05:38;14.10;;;5.90;;
71771;SDS011;59606;52.138;5.424;2023-03-01T04:08:06;17.33;;;5.65;;
71771;SDS011;59606;52.138;5.424;2023-03-01T04:10:35;15.90;;;6.20;;
71771;SDS011;59606;52.138;5.424;2023-03-01T04:13:13;11.80;;;5.63;;
71771;SDS011;59606;52.138;5.424;2023-03-01T04:15:42;12.10;;;6.27;;
71771;SDS011;59606;52.138;5.424;2023-03-01T04:18:11;12.55;;;5.70;;
71771;SDS011;59606;52.138;5.424;2023-03-01T04:20:40;16.35;;;6.63;;
71771;SDS011;59606;52.138;5.424;2023-03-01T04:23:11;13.20;;;5.88;;
71771;SDS011;59606;52.138;5.424;2023-03-01T04:25:46;14.63;;;5.65;;
71771;SDS011;59606;52.138;5.424;2023-03-01T04:28:27;10.33;;;5.87;;
71771;SDS011;59606;52.138;5.424;2023-03-01T04:30:56;15.63;;;6.28;;
71771;SDS011;59606;52.138;5.424;2023-03-01T04:33:24;13.50;;;6.35;;
71771;SDS011;59606;52.138;5.424;2023-03-01T04:35:52;11.07;;;4.85;;
71771;SDS011;59606;52.138;5.424;2023-03-01T04:38:19;12.50;;;5.80;;
71771;SDS011;59606;52.138;5.424;2023-03-01T04:40:47;10.63;;;6.10;;
71771;SDS011;59606;52.138;5.424;2023-03-01T04:43:14;9.80;;;5.03;;
71771;SDS011;59606;52.138;5.424;2023-03-01T04:45:41;16.77;;;6.47;;
71771;SDS011;59606;52.138;5.424;2023-03-01T04:48:09;15.05;;;6.53;;
71771;SDS011;59606;52.138;5.424;2023-03-01T04:50:35;11.02;;;5.88;;
71771;SDS011;59606;52.138;5.424;2023-03-01T04:53:02;10.57;;;5.87;;
71771;SDS011;59606;52.138;5.424;2023-03-01T04:55:29;9.77;;;5.13;;
71771;SDS011;59606;52.138;5.424;2023-03-01T04:57:56;12.63;;;4.90;;
71771;SDS011;59606;52.138;5.424;2023-03-01T05:00:22;15.07;;;6.68;;
71771;SDS011;59606;52.138;5.424;2023-03-01T05:02:56;13.80;;;6.35;;
71771;SDS011;59606;52.138;5.424;2023-03-01T05:05:35;15.60;;;5.77;;
71771;SDS011;59606;52.138;5.424;2023-03-01T05:08:04;9.70;;;5.45;;
71771;SDS011;59606;52.138;5.424;2023-03-01T05:10:34;16.20;;;7.03;;
71771;SDS011;59606;52.138;5.424;2023-03-01T05:13:02;16.00;;;5.38;;
71771;SDS011;59606;52.138;5.424;2023-03-01T05:15:30;12.60;;;5.70;;
71771;SDS011;59606;52.138;5.424;2023-03-01T05:17:57;16.20;;;6.07;;
71771;SDS011;59606;52.138;5.424;2023-03-01T05:20:29;12.90;;;5.65;;
71771;SDS011;59606;52.138;5.424;2023-03-01T05:22:57;14.07;;;5.95;;
71771;SDS011;59606;52.138;5.424;2023-03-01T05:25:26;13.60;;;5.65;;
71771;SDS011;59606;52.138;5.424;2023-03-01T05:27:53;11.45;;;5.28;;
71771;SDS011;59606;52.138;5.424;2023-03-01T05:30:19;11.43;;;5.90;;
71771;SDS011;59606;52.138;5.424;2023-03-01T05:32:50;12.40;;;5.65;;
71771;SDS011;59606;52.138;5.424;2023-03-01T05:35:22;14.52;;;5.63;;
71771;SDS011;59606;52.138;5.424;2023-03-01T05:37:49;12.10;;;6.32;;
71771;SDS011;59606;52.138;5.424;2023-03-01T05:40:17;10.25;;;5.53;;
71771;SDS011;59606;52.138;5.424;2023-03-01T05:42:49;11.80;;;5.47;;
71771;SDS011;59606;52.138;5.424;2023-03-01T05:45:21;12.13;;;5.93;;
71771;SDS011;59606;52.138;5.424;2023-03-01T05:47:49;12.70;;;5.05;;
71771;SDS011;59606;52.138;5.424;2023-03-01T05:50:17;11.25;;;5.80;;
71771;SDS011;59606;52.138;5.424;2023-03-01T05:52:46;10.95;;;6.05;;
71771;SDS011;59606;52.138;5.424;2023-03-01T05:55:15;16.13;;;6.23;;
71771;SDS011;59606;52.138;5.424;2023-03-01T05:57:45;13.07;;;5.85;;
71771;SDS011;59606;52.138;5.424;2023-03-01T06:00:12;13.32;;;5.70;;
71771;SDS011;59606;52.138;5.424;2023-03-01T06:02:40;10.40;;;5.90;;
71771;SDS011;59606;52.138;5.424;2023-03-01T06:05:07;14.27;;;5.43;;
71771;SDS011;59606;52.138;5.424;2023-03-01T06:07:35;10.17;;;5.23;;
71771;SDS011;59606;52.138;5.424;2023-03-01T06:10:02;12.55;;;5.75;;
71771;SDS011;59606;52.138;5.424;2023-03-01T06:12:33;15.98;;;6.63;;
71771;SDS011;59606;52.138;5.424;2023-03-01T06:15:02;11.18;;;5.80;;
71771;SDS011;59606;52.138;5.424;2023-03-01T06:17:31;15.15;;;6.82;;
71771;SDS011;59606;52.138;5.424;2023-03-01T06:20:04;13.10;;;6.33;;
71771;SDS011;59606;52.138;5.424;2023-03-01T06:22:31;16.15;;;6.35;;
71771;SDS011;59606;52.138;5.424;2023-03-01T06:24:58;14.40;;;7.07;;
71771;SDS011;59606;52.138;5.424;2023-03-01T06:27:24;11.57;;;6.18;;
71771;SDS011;59606;52.138;5.424;2023-03-01T06:29:50;15.48;;;6.65;;
71771;SDS011;59606;52.138;5.424;2023-03-01T06:32:17;12.03;;;5.57;;
71771;SDS011;59606;52.138;5.424;2023-03-01T06:34:43;12.50;;;6.40;;
71771;SDS011;59606;52.138;5.424;2023-03-01T06:37:10;13.25;;;6.10;;
71771;SDS011;59606;52.138;5.424;2023-03-01T06:39:36;14.60;;;6.10;;
71771;SDS011;59606;52.138;5.424;2023-03-01T06:42:03;17.60;;;7.65;;
71771;SDS011;59606;52.138;5.424;2023-03-01T06:44:30;15.53;;;6.73;;
71771;SDS011;59606;52.138;5.424;2023-03-01T06:46:56;13.60;;;6.45;;
71771;SDS011;59606;52.138;5.424;2023-03-01T06:49:23;14.15;;;6.75;;
71771;SDS011;59606;52.138;5.424;2023-03-01T06:51:50;16.70;;;6.68;;
71771;SDS011;59606;52.138;5.424;2023-03-01T06:54:16;13.68;;;6.60;;
71771;SDS011;59606;52.138;5.424;2023-03-01T06:56:46;14.53;;;5.90;;
71771;SDS011;59606;52.138;5.424;2023-03-01T06:59:13;18.95;;;5.85;;
71771;SDS011;59606;52.138;5.424;2023-03-01T07:01:40;13.27;;;6.18;;
71771;SDS011;59606;52.138;5.424;2023-03-01T07:04:07;13.00;;;5.80;;
71771;SDS011;59606;52.138;5.424;2023-03-01T07:06:33;14.00;;;6.97;;
71771;SDS011;59606;52.138;5.424;2023-03-01T07:09:00;13.63;;;6.33;;
71771;SDS011;59606;52.138;5.424;2023-03-01T07:11:26;14.27;;;7.00;;
71771;SDS011;59606;52.138;5.424;2023-03-01T07:13:53;16.83;;;6.93;;
71771;SDS011;59606;52.138;5.424;2023-03-01T07:16:21;20.17;;;7.90;;
71771;SDS011;59606;52.138;5.424;2023-03-01T07:18:48;17.38;;;8.43;;
71771;SDS011;59606;52.138;5.424;2023-03-01T07:21:14;16.97;;;7.83;;
71771;SDS011;59606;52.138;5.424;2023-03-01T07:23:42;18.38;;;8.73;;
71771;SDS011;59606;52.138;5.424;2023-03-01T07:26:10;18.08;;;8.45;;
71771;SDS011;59606;52.138;5.424;2023-03-01T07:28:36;20.92;;;8.57;;
71771;SDS011;59606;52.138;5.424;2023-03-01T07:31:05;20.75;;;9.90;;
71771;SDS011;59606;52.138;5.424;2023-03-01T07:33:32;23.17;;;9.87;;
71771;SDS011;59606;52.138;5.424;2023-03-01T07:35:59;29.50;;;10.10;;
71771;SDS011;59606;52.138;5.424;2023-03-01T07:38:27;20.20;;;9.68;;
71771;SDS011;59606;52.138;5.424;2023-03-01T07:41:02;20.13;;;8.88;;
71771;SDS011;59606;52.138;5.424;2023-03-01T07:43:29;20.90;;;8.73;;
71771;SDS011;59606;52.138;5.424;2023-03-01T07:45:59;16.53;;;9.07;;
71771;SDS011;59606;52.138;5.424;2023-03-01T07:48:28;16.17;;;7.95;;
71771;SDS011;59606;52.138;5.424;2023-03-01T07:51:01;16.65;;;8.15;;
71771;SDS011;59606;52.138;5.424;2023-03-01T07:53:30;20.20;;;9.77;;
71771;SDS011;59606;52.138;5.424;2023-03-01T07:56:08;25.23;;;9.48;;
71771;SDS011;59606;52.138;5.424;2023-03-01T07:58:39;17.00;;;9.27;;
71771;SDS011;59606;52.138;5.424;2023-03-01T08:01:08;22.35;;;8.82;;
71771;SDS011;59606;52.138;5.424;2023-03-01T08:03:37;20.80;;;9.55;;
71771;SDS011;59606;52.138;5.424;2023-03-01T08:06:05;20.73;;;8.93;;
71771;SDS011;59606;52.138;5.424;2023-03-01T08:08:33;20.25;;;8.63;;
71771;SDS011;59606;52.138;5.424;2023-03-01T08:11:00;22.87;;;9.80;;
71771;SDS011;59606;52.138;5.424;2023-03-01T08:13:28;21.65;;;9.23;;
71771;SDS011;59606;52.138;5.424;2023-03-01T08:16:00;15.85;;;8.15;;
71771;SDS011;59606;52.138;5.424;2023-03-01T08:18:31;17.65;;;7.88;;
71771;SDS011;59606;52.138;5.424;2023-03-01T08:23:31;21.53;;;8.47;;
71771;SDS011;59606;52.138;5.424;2023-03-01T08:26:08;19.70;;;8.57;;
71771;SDS011;59606;52.138;5.424;2023-03-01T08:28:36;16.15;;;8.05;;
71771;SDS011;59606;52.138;5.424;2023-03-01T08:31:03;19.88;;;8.00;;
71771;SDS011;59606;52.138;5.424;2023-03-01T08:33:39;16.00;;;6.80;;
71771;SDS011;59606;52.138;5.424;2023-03-01T08:36:06;14.57;;;6.77;;
71771;SDS011;59606;52.138;5.424;2023-03-01T08:38:33;14.48;;;7.07;;
71771;SDS011;59606;52.138;5.424;2023-03-01T08:41:01;13.82;;;6.20;;
71771;SDS011;59606;52.138;5.424;2023-03-01T08:43:29;16.55;;;6.38;;
71771;SDS011;59606;52.138;5.424;2023-03-01T08:45:56;15.30;;;6.30;;
71771;SDS011;59606;52.138;5.424;2023-03-01T08:48:22;12.03;;;6.20;;
71771;SDS011;59606;52.138;5.424;2023-03-01T08:50:49;14.02;;;7.05;;
71771;SDS011;59606;52.138;5.424;2023-03-01T08:53:15;15.10;;;4.97;;
71771;SDS011;59606;52.138;5.424;2023-03-01T08:55:42;9.43;;;5.18;;
71771;SDS011;59606;52.138;5.424;2023-03-01T08:58:08;19.23;;;6.15;;
71771;SDS011;59606;52.138;5.424;2023-03-01T09:00:35;10.23;;;5.30;;
71771;SDS011;59606;52.138;5.424;2023-03-01T09:03:01;10.13;;;4.75;;
71771;SDS011;59606;52.138;5.424;2023-03-01T09:05:30;7.90;;;3.85;;
71771;SDS011;59606;52.138;5.424;2023-03-01T09:07:58;10.10;;;5.20;;
71771;SDS011;59606;52.138;5.424;2023-03-01T09:10:25;10.88;;;5.20;;
71771;SDS011;59606;52.138;5.424;2023-03-01T09:12:52;9.00;;;4.33;;
71771;SDS011;59606;52.138;5.424;2023-03-01T09:15:18;9.70;;;4.00;;
71771;SDS011;59606;52.138;5.424;2023-03-01T09:17:45;9.80;;;4.28;;
71771;SDS011;59606;52.138;5.424;2023-03-01T09:20:11;8.02;;;4.43;;
71771;SDS011;59606;52.138;5.424;2023-03-01T09:22:38;8.73;;;3.58;;
71771;SDS011;59606;52.138;5.424;2023-03-01T09:25:05;9.57;;;4.37;;
71771;SDS011;59606;52.138;5.424;2023-03-01T09:27:32;9.48;;;4.15;;
71771;SDS011;59606;52.138;5.424;2023-03-01T09:29:58;11.98;;;4.47;;
71771;SDS011;59606;52.138;5.424;2023-03-01T09:32:25;9.77;;;4.20;;
71771;SDS011;59606;52.138;5.424;2023-03-01T09:34:51;9.85;;;4.45;;
71771;SDS011;59606;52.138;5.424;2023-03-01T09:37:30;8.37;;;4.30;;
71771;SDS011;59606;52.138;5.424;2023-03-01T09:39:58;10.75;;;4.63;;
71771;SDS011;59606;52.138;5.424;2023-03-01T09:42:25;8.68;;;3.83;;
71771;SDS011;59606;52.138;5.424;2023-03-01T09:45:00;10.15;;;4.05;;
71771;SDS011;59606;52.138;5.424;2023-03-01T09:47:30;7.57;;;3.50;;
71771;SDS011;59606;52.138;5.424;2023-03-01T09:52:40;9.77;;;3.65;;
71771;SDS011;59606;52.138;5.424;2023-03-01T09:55:08;7.93;;;3.13;;
71771;SDS011;59606;52.138;5.424;2023-03-01T09:57:41;7.53;;;2.78;;
71771;SDS011;59606;52.138;5.424;2023-03-01T10:00:19;9.73;;;2.53;;
71771;SDS011;59606;52.138;5.424;2023-03-01T10:10:55;6.17;;;2.30;;
71771;SDS011;59606;52.138;5.424;2023-03-01T10:18:58;9.13;;;2.65;;
71771;SDS011;59606;52.138;5.424;2023-03-01T10:21:28;7.65;;;2.65;;
71771;SDS011;59606;52.138;5.424;2023-03-01T10:24:01;4.87;;;2.37;;
71771;SDS011;59606;52.138;5.424;2023-03-01T10:29:07;6.18;;;2.50;;
71771;SDS011;59606;52.138;5.424;2023-03-01T10:34:13;6.78;;;3.00;;
71771;SDS011;59606;52.138;5.424;2023-03-01T10:36:47;7.27;;;2.90;;
71771;SDS011;59606;52.138;5.424;2023-03-01T10:39:22;5.95;;;2.47;;
71771;SDS011;59606;52.138;5.424;2023-03-01T10:42:01;9.18;;;2.75;;
71771;SDS011;59606;52.138;5.424;2023-03-01T10:44:40;7.07;;;2.78;;
71771;SDS011;59606;52.138;5.424;2023-03-01T10:47:13;4.97;;;2.17;;
71771;SDS011;59606;52.138;5.424;2023-03-01T10:50:01;5.50;;;2.00;;
71771;SDS011;59606;52.138;5.424;2023-03-01T10:52:35;6.10;;;2.20;;
71771;SDS011;59606;52.138;5.424;2023-03-01T10:57:39;5.10;;;2.20;;
71771;SDS011;59606;52.138;5.424;2023-03-01T11:00:29;4.80;;;1.63;;
71771;SDS011;59606;52.138;5.424;2023-03-01T11:05:25;5.32;;;1.75;;
71771;SDS011;59606;52.138;5.424;2023-03-01T11:07:55;5.45;;;2.08;;
71771;SDS011;59606;52.138;5.424;2023-03-01T11:10:24;3.97;;;1.73;;
71771;SDS011;59606;52.138;5.424;2023-03-01T11:13:07;3.50;;;1.50;;
71771;SDS011;59606;52.138;5.424;2023-03-01T11:15:40;5.67;;;1.93;;
71771;SDS011;59606;52.138;5.424;2023-03-01T11:18:21;6.10;;;2.05;;
71771;SDS011;59606;52.138;5.424;2023-03-01T11:21:05;6.15;;;1.52;;
71771;SDS011;59606;52.138;5.424;2023-03-01T11:23:34;3.50;;;1.60;;
71771;SDS011;59606;52.138;5.424;2023-03-01T11:26:07;3.35;;;1.60;;
71771;SDS011;59606;52.138;5.424;2023-03-01T11:28:38;4.20;;;1.70;;
71771;SDS011;59606;52.138;5.424;2023-03-01T11:31:08;3.63;;;1.20;;
71771;SDS011;59606;52.138;5.424;2023-03-01T11:38:56;2.90;;;1.63;;
71771;SDS011;59606;52.138;5.424;2023-03-01T11:41:32;4.30;;;1.60;;
71771;SDS011;59606;52.138;5.424;2023-03-01T11:44:10;3.58;;;1.73;;
71771;SDS011;59606;52.138;5.424;2023-03-01T11:49:37;4.03;;;1.80;;
71771;SDS011;59606;52.138;5.424;2023-03-01T11:52:10;5.18;;;2.03;;
71771;SDS011;59606;52.138;5.424;2023-03-01T11:55:03;4.90;;;1.83;;
71771;SDS011;59606;52.138;5.424;2023-03-01T12:06:35;4.53;;;1.85;;
71771;SDS011;59606;52.138;5.424;2023-03-01T12:14:47;5.10;;;2.60;;
71771;SDS011;59606;52.138;5.424;2023-03-01T12:17:50;5.72;;;2.30;;
71771;SDS011;59606;52.138;5.424;2023-03-01T12:20:41;5.38;;;2.15;;
71771;SDS011;59606;52.138;5.424;2023-03-01T12:28:37;6.70;;;2.20;;
71771;SDS011;59606;52.138;5.424;2023-03-01T12:40:47;4.57;;;2.30;;
71771;SDS011;59606;52.138;5.424;2023-03-01T12:46:05;4.18;;;2.00;;
71771;SDS011;59606;52.138;5.424;2023-03-01T12:51:31;6.90;;;2.40;;
71771;SDS011;59606;52.138;5.424;2023-03-01T12:54:25;3.40;;;2.15;;
71771;SDS011;59606;52.138;5.424;2023-03-01T12:56:57;6.10;;;2.75;;
71771;SDS011;59606;52.138;5.424;2023-03-01T12:59:39;4.50;;;2.42;;
71771;SDS011;59606;52.138;5.424;2023-03-01T13:02:31;5.95;;;2.17;;
71771;SDS011;59606;52.138;5.424;2023-03-01T13:05:10;6.77;;;2.77;;
71771;SDS011;59606;52.138;5.424;2023-03-01T13:10:41;5.25;;;1.88;;
71771;SDS011;59606;52.138;5.424;2023-03-01T13:15:50;6.93;;;2.45;;
71771;SDS011;59606;52.138;5.424;2023-03-01T13:20:47;5.63;;;2.50;;
71771;SDS011;59606;52.138;5.424;2023-03-01T13:38:57;6.72;;;2.55;;
71771;SDS011;59606;52.138;5.424;2023-03-01T13:44:20;4.87;;;1.87;;
71771;SDS011;59606;52.138;5.424;2023-03-01T13:46:47;5.63;;;2.13;;
71771;SDS011;59606;52.138;5.424;2023-03-01T13:49:16;5.05;;;1.98;;
71771;SDS011;59606;52.138;5.424;2023-03-01T13:51:46;5.18;;;2.35;;
71771;SDS011;59606;52.138;5.424;2023-03-01T13:54:15;6.15;;;2.30;;
71771;SDS011;59606;52.138;5.424;2023-03-01T13:56:44;7.13;;;3.63;;
71771;SDS011;59606;52.138;5.424;2023-03-01T13:59:15;6.10;;;2.60;;
71771;SDS011;59606;52.138;5.424;2023-03-01T14:01:44;7.60;;;2.13;;
71771;SDS011;59606;52.138;5.424;2023-03-01T14:04:23;5.93;;;2.33;;
71771;SDS011;59606;52.138;5.424;2023-03-01T14:06:50;7.70;;;2.70;;
71771;SDS011;59606;52.138;5.424;2023-03-01T14:09:19;4.23;;;2.20;;
71771;SDS011;59606;52.138;5.424;2023-03-01T14:12:05;6.72;;;2.35;;
71771;SDS011;59606;52.138;5.424;2023-03-01T14:20:32;3.92;;;1.88;;
71771;SDS011;59606;52.138;5.424;2023-03-01T14:23:08;4.97;;;1.90;;
71771;SDS011;59606;52.138;5.424;2023-03-01T14:25:38;7.63;;;2.38;;
71771;SDS011;59606;52.138;5.424;2023-03-01T14:28:20;4.82;;;2.17;;
71771;SDS011;59606;52.138;5.424;2023-03-01T14:30:51;5.60;;;2.72;;
71771;SDS011;59606;52.138;5.424;2023-03-01T14:33:23;4.20;;;1.88;;
71771;SDS011;59606;52.138;5.424;2023-03-01T14:36:07;6.63;;;2.40;;
71771;SDS011;59606;52.138;5.424;2023-03-01T14:38:42;4.45;;;2.08;;
71771;SDS011;59606;52.138;5.424;2023-03-01T14:41:17;6.10;;;2.65;;
71771;SDS011;59606;52.138;5.424;2023-03-01T14:43:57;5.95;;;2.17;;
71771;SDS011;59606;52.138;5.424;2023-03-01T14:46:26;5.63;;;2.75;;
71771;SDS011;59606;52.138;5.424;2023-03-01T14:49:02;9.77;;;2.57;;
71771;SDS011;59606;52.138;5.424;2023-03-01T14:51:34;4.57;;;1.80;;
71771;SDS011;59606;52.138;5.424;2023-03-01T14:54:02;6.88;;;2.60;;
71771;SDS011;59606;52.138;5.424;2023-03-01T14:56:42;6.40;;;2.22;;
71771;SDS011;59606;52.138;5.424;2023-03-01T14:59:10;5.35;;;2.85;;
71771;SDS011;59606;52.138;5.424;2023-03-01T15:01:37;8.93;;;2.83;;
71771;SDS011;59606;52.138;5.424;2023-03-01T15:04:04;10.20;;;2.80;;
71771;SDS011;59606;52.138;5.424;2023-03-01T15:06:32;7.45;;;2.60;;
71771;SDS011;59606;52.138;5.424;2023-03-01T15:08:59;6.05;;;2.97;;
71771;SDS011;59606;52.138;5.424;2023-03-01T15:14:40;4.73;;;2.53;;
71771;SDS011;59606;52.138;5.424;2023-03-01T15:19:55;5.13;;;2.33;;
71771;SDS011;59606;52.138;5.424;2023-03-01T15:22:21;4.45;;;2.13;;
71771;SDS011;59606;52.138;5.424;2023-03-01T15:24:51;5.85;;;2.40;;
71771;SDS011;59606;52.138;5.424;2023-03-01T15:27:23;4.80;;;2.10;;
71771;SDS011;59606;52.138;5.424;2023-03-01T15:29:58;5.10;;;2.28;;
71771;SDS011;59606;52.138;5.424;2023-03-01T15:34:55;6.32;;;2.55;;
71771;SDS011;59606;52.138;5.424;2023-03-01T15:37:37;4.55;;;2.10;;
71771;SDS011;59606;52.138;5.424;2023-03-01T15:40:22;5.10;;;2.70;;
71771;SDS011;59606;52.138;5.424;2023-03-01T15:45:27;6.63;;;2.75;;
71771;SDS011;59606;52.138;5.424;2023-03-01T15:48:03;7.63;;;2.95;;
71771;SDS011;59606;52.138;5.424;2023-03-01T15:50:33;5.38;;;2.75;;
71771;SDS011;59606;52.138;5.424;2023-03-01T15:53:05;5.67;;;2.43;;
71771;SDS011;59606;52.138;5.424;2023-03-01T15:55:34;6.57;;;2.30;;
71771;SDS011;59606;52.138;5.424;2023-03-01T15:58:02;6.10;;;2.60;;
71771;SDS011;59606;52.138;5.424;2023-03-01T16:00:32;5.82;;;2.95;;
71771;SDS011;59606;52.138;5.424;2023-03-01T16:02:59;7.45;;;3.13;;
71771;SDS011;59606;52.138;5.424;2023-03-01T16:05:28;5.83;;;2.73;;
71771;SDS011;59606;52.138;5.424;2023-03-01T16:07:57;5.90;;;2.78;;
71771;SDS011;59606;52.138;5.424;2023-03-01T16:10:23;6.53;;;2.72;;
71771;SDS011;59606;52.138;5.424;2023-03-01T16:12:51;7.10;;;3.13;;
71771;SDS011;59606;52.138;5.424;2023-03-01T16:15:22;6.30;;;2.72;;
71771;SDS011;59606;52.138;5.424;2023-03-01T16:17:51;6.27;;;2.80;;
71771;SDS011;59606;52.138;5.424;2023-03-01T16:20:18;6.10;;;2.38;;
71771;SDS011;59606;52.138;5.424;2023-03-01T16:22:53;5.47;;;2.75;;
71771;SDS011;59606;52.138;5.424;2023-03-01T16:25:20;7.00;;;2.63;;
71771;SDS011;59606;52.138;5.424;2023-03-01T16:27:49;6.20;;;2.75;;
71771;SDS011;59606;52.138;5.424;2023-03-01T16:30:18;5.13;;;1.90;;
71771;SDS011;59606;52.138;5.424;2023-03-01T16:32:48;6.63;;;2.80;;
71771;SDS011;59606;52.138;5.424;2023-03-01T16:35:16;3.90;;;2.55;;
71771;SDS011;59606;52.138;5.424;2023-03-01T16:37:45;4.38;;;2.28;;
71771;SDS011;59606;52.138;5.424;2023-03-01T16:42:43;6.40;;;2.30;;
71771;SDS011;59606;52.138;5.424;2023-03-01T16:45:10;5.65;;;2.15;;
71771;SDS011;59606;52.138;5.424;2023-03-01T16:47:49;8.43;;;3.10;;
71771;SDS011;59606;52.138;5.424;2023-03-01T16:50:15;6.70;;;2.72;;
71771;SDS011;59606;52.138;5.424;2023-03-01T16:52:42;6.45;;;2.70;;
71771;SDS011;59606;52.138;5.424;2023-03-01T16:55:08;8.47;;;2.43;;
71771;SDS011;59606;52.138;5.424;2023-03-01T16:57:36;7.18;;;2.63;;
71771;SDS011;59606;52.138;5.424;2023-03-01T17:00:07;7.55;;;2.45;;
71771;SDS011;59606;52.138;5.424;2023-03-01T17:02:39;5.32;;;2.53;;